createdAt,value
2018-06-12T00:02:14.632Z,81.50
2018-06-12T00:04:42.992Z,81.90
2018-06-12T00:07:11.274Z,81.80
2018-06-12T00:09:39.650Z,81.40
2018-06-12T00:12:07.926Z,81.50
2018-06-12T00:17:04.387Z,81.60
2018-06-12T00:19:32.711Z,81.80
2018-06-12T00:22:01.028Z,81.60
2018-06-12T00:24:29.377Z,81.30
2018-06-12T00:26:59.165Z,81.40
2018-06-12T00:29:27.515Z,81.80
2018-06-12T00:31:55.800Z,81.70
2018-06-12T00:34:24.140Z,81.20
2018-06-12T00:36:52.489Z,81.50
2018-06-12T00:39:20.763Z,81.70
2018-06-12T00:41:49.008Z,81.50
2018-06-12T00:44:17.287Z,81.50
2018-06-12T00:46:45.642Z,81.90
2018-06-12T00:49:14.688Z,81.90
2018-06-12T00:51:42.979Z,82.00
2018-06-12T00:54:11.284Z,82.00
2018-06-12T00:56:50.983Z,82.10
2018-06-12T00:59:19.949Z,81.90
2018-06-12T01:01:48.273Z,82.10
2018-06-12T01:04:16.539Z,82.10
2018-06-12T01:06:44.867Z,81.80
2018-06-12T01:09:13.195Z,81.90
2018-06-12T01:11:41.496Z,82.00
2018-06-12T01:14:09.769Z,81.90
2018-06-12T01:16:38.072Z,81.80
2018-06-12T01:19:06.296Z,81.50
2018-06-12T01:21:34.602Z,81.90
2018-06-12T01:24:02.876Z,81.80
2018-06-12T01:26:31.124Z,81.90
2018-06-12T01:28:59.437Z,81.80
2018-06-12T01:31:27.724Z,81.60
2018-06-12T01:33:56.051Z,81.70
2018-06-12T01:36:24.819Z,81.90
2018-06-12T01:38:53.124Z,82.00
2018-06-12T01:41:21.376Z,82.40
2018-06-12T01:43:49.776Z,82.30
2018-06-12T01:46:18.121Z,82.60
2018-06-12T01:48:46.374Z,82.40
2018-06-12T01:51:14.740Z,82.10
2018-06-12T01:53:43.097Z,82.20
2018-06-12T01:56:11.382Z,82.00
2018-06-12T01:58:39.690Z,82.00
2018-06-12T02:01:08.135Z,81.50
2018-06-12T02:03:36.440Z,81.80
2018-06-12T02:06:04.727Z,82.00
2018-06-12T02:08:33.038Z,82.30
2018-06-12T02:11:01.356Z,82.10
2018-06-12T02:13:29.696Z,81.80
2018-06-12T02:15:57.981Z,81.70
2018-06-12T02:18:26.324Z,81.70
2018-06-12T02:20:54.571Z,81.90
2018-06-12T02:23:22.970Z,81.90
2018-06-12T02:25:51.226Z,81.80
2018-06-12T02:28:19.968Z,81.80
2018-06-12T02:30:48.224Z,82.00
2018-06-12T02:33:16.468Z,82.20
2018-06-12T02:35:44.774Z,82.20
2018-06-12T02:38:12.991Z,82.00
2018-06-12T02:40:41.270Z,82.10
2018-06-12T02:43:09.560Z,82.00
2018-06-12T02:45:37.858Z,82.00
2018-06-12T02:48:06.241Z,81.80
2018-06-12T02:50:34.599Z,81.20
2018-06-12T02:53:02.861Z,81.30
2018-06-12T02:55:31.063Z,81.50
2018-06-12T02:57:59.372Z,81.10
2018-06-12T03:00:28.220Z,81.20
2018-06-12T03:02:56.521Z,81.30
2018-06-12T03:05:24.779Z,81.50
2018-06-12T03:07:53.026Z,81.60
2018-06-12T03:10:21.328Z,81.60
2018-06-12T03:12:49.568Z,81.60
2018-06-12T03:15:17.951Z,81.00
2018-06-12T03:17:46.281Z,81.30
2018-06-12T03:22:42.518Z,81.10
2018-06-12T03:25:10.797Z,81.30
2018-06-12T03:27:39.052Z,81.40
2018-06-12T03:30:07.438Z,81.70
2018-06-12T03:32:35.714Z,81.70
2018-06-12T03:35:03.960Z,81.80
2018-06-12T03:37:32.343Z,81.70
2018-06-12T03:40:00.571Z,81.60
2018-06-12T03:42:28.839Z,81.60
2018-06-12T03:44:57.107Z,81.40
2018-06-12T03:47:25.420Z,81.60
2018-06-12T03:49:53.774Z,81.60
2018-06-12T03:52:24.058Z,81.40
2018-06-12T03:54:52.483Z,81.40
2018-06-12T03:57:20.859Z,81.40
2018-06-12T03:59:49.161Z,81.60
2018-06-12T04:02:18.185Z,81.50
2018-06-12T04:04:46.377Z,81.50
2018-06-12T04:07:14.956Z,81.60
2018-06-12T04:09:43.313Z,81.50
2018-06-12T04:12:11.624Z,81.30
2018-06-12T04:14:40.058Z,81.20
2018-06-12T04:17:08.290Z,81.30
2018-06-12T04:22:05.075Z,81.20
2018-06-12T04:24:33.427Z,81.20
2018-06-12T04:27:01.731Z,81.40
2018-06-12T04:29:29.947Z,81.30
2018-06-12T04:31:58.204Z,81.40
2018-06-12T04:34:26.565Z,81.40
2018-06-12T04:36:54.816Z,81.60
2018-06-12T04:39:24.203Z,81.30
2018-06-12T04:41:52.501Z,81.30
2018-06-12T04:44:20.824Z,81.30
2018-06-12T04:46:49.102Z,81.10
2018-06-12T04:51:45.459Z,81.20
2018-06-12T04:54:13.720Z,81.30
2018-06-12T04:56:41.936Z,81.10
2018-06-12T04:59:10.267Z,81.30
2018-06-12T05:01:38.532Z,81.30
2018-06-12T05:04:06.843Z,80.80
2018-06-12T05:09:03.457Z,81.00
2018-06-12T05:11:31.745Z,80.70
2018-06-12T05:14:00.042Z,80.50
2018-06-12T05:16:28.386Z,80.60
2018-06-12T05:18:56.616Z,80.80
2018-06-12T05:21:24.888Z,80.70
2018-06-12T05:23:53.147Z,80.70
2018-06-12T05:26:21.512Z,80.90
2018-06-12T05:28:49.769Z,80.90
2018-06-12T05:31:18.134Z,80.80
2018-06-12T05:33:46.433Z,80.70
2018-06-12T05:36:14.728Z,80.80
2018-06-12T05:38:43.059Z,80.90
2018-06-12T05:41:11.404Z,81.20
2018-06-12T05:43:39.753Z,81.40
2018-06-12T05:46:08.016Z,81.40
2018-06-12T05:48:36.247Z,81.00
2018-06-12T05:51:04.700Z,80.70
2018-06-12T05:53:33.051Z,79.80
2018-06-12T05:56:01.328Z,79.70
2018-06-12T05:58:29.614Z,79.90
2018-06-12T06:00:57.904Z,80.10
2018-06-12T06:03:26.155Z,79.90
2018-06-12T06:05:54.511Z,80.40
2018-06-12T06:08:23.260Z,80.60
2018-06-12T06:10:51.535Z,80.60
2018-06-12T06:13:19.939Z,80.70
2018-06-12T06:15:48.209Z,80.60
2018-06-12T06:18:16.528Z,80.60
2018-06-12T06:20:45.323Z,79.60
2018-06-12T06:23:13.592Z,79.70
2018-06-12T06:25:41.932Z,80.00
2018-06-12T06:28:10.262Z,80.30
2018-06-12T06:30:38.599Z,80.10
2018-06-12T06:33:06.850Z,80.80
2018-06-12T06:35:35.082Z,81.00
2018-06-12T06:38:03.332Z,80.90
2018-06-12T06:40:31.590Z,81.30
2018-06-12T06:42:59.982Z,81.00
2018-06-12T06:45:28.223Z,81.30
2018-06-12T06:47:56.495Z,81.40
2018-06-12T06:50:25.323Z,81.60
2018-06-12T06:52:53.589Z,81.60
2018-06-12T06:55:21.933Z,81.90
2018-06-12T06:57:50.208Z,81.80
2018-06-12T07:00:18.405Z,82.10
2018-06-12T07:02:46.634Z,82.00
2018-06-12T07:05:14.865Z,82.30
2018-06-12T07:07:43.188Z,82.20
2018-06-12T07:10:11.388Z,82.20
2018-06-12T07:12:39.628Z,82.10
2018-06-12T07:15:07.917Z,82.10
2018-06-12T07:17:36.187Z,82.10
2018-06-12T07:20:04.413Z,82.20
2018-06-12T07:22:32.675Z,82.30
2018-06-12T07:25:01.109Z,82.20
2018-06-12T07:27:29.442Z,82.20
2018-06-12T07:29:57.698Z,82.30
2018-06-12T07:32:26.000Z,82.70
2018-06-12T07:34:54.303Z,82.80
2018-06-12T07:37:22.508Z,83.00
2018-06-12T07:39:50.776Z,83.10
2018-06-12T07:42:19.142Z,82.80
2018-06-12T07:44:47.435Z,82.80
2018-06-12T07:47:15.675Z,82.60
2018-06-12T07:49:43.923Z,82.80
2018-06-12T07:54:40.199Z,82.60
2018-06-12T07:57:08.527Z,82.50
2018-06-12T07:59:36.876Z,82.70
2018-06-12T08:02:05.237Z,82.60
2018-06-12T08:04:33.925Z,82.40
2018-06-12T08:07:02.228Z,82.30
2018-06-12T08:09:30.677Z,82.20
2018-06-12T08:11:58.984Z,81.90
2018-06-12T08:14:27.265Z,81.90
2018-06-12T08:16:56.646Z,81.70
2018-06-12T08:19:24.945Z,81.60
2018-06-12T08:21:53.283Z,81.50
2018-06-12T08:24:21.625Z,81.60
2018-06-12T08:26:49.918Z,81.40
2018-06-12T08:29:18.228Z,81.20
2018-06-12T08:31:46.528Z,81.20
2018-06-12T08:34:14.901Z,81.60
2018-06-12T08:36:43.454Z,81.70
2018-06-12T08:39:11.739Z,81.70
2018-06-12T08:41:40.193Z,81.80
2018-06-12T08:44:08.481Z,81.40
2018-06-12T08:46:36.834Z,80.90
2018-06-12T08:49:05.470Z,80.60
2018-06-12T08:51:33.735Z,80.70
2018-06-12T08:54:02.888Z,81.40
2018-06-12T08:56:31.191Z,81.40
2018-06-12T08:58:59.523Z,81.40
2018-06-12T09:01:27.774Z,81.30
2018-06-12T09:03:56.091Z,81.20
2018-06-12T09:06:24.587Z,81.20
2018-06-12T09:08:52.818Z,80.90
2018-06-12T09:11:21.192Z,80.80
2018-06-12T09:13:49.451Z,81.10
2018-06-12T09:16:17.775Z,81.20
2018-06-12T09:18:46.113Z,81.50
2018-06-12T09:21:14.483Z,81.80
2018-06-12T09:23:42.792Z,81.40
2018-06-12T09:26:11.112Z,81.30
2018-06-12T09:28:39.354Z,81.30
2018-06-12T09:31:07.604Z,81.40
2018-06-12T09:33:35.924Z,81.30
2018-06-12T09:36:09.731Z,81.40
2018-06-12T09:38:38.048Z,80.50
2018-06-12T09:41:06.339Z,81.00
2018-06-12T09:43:34.745Z,80.90
2018-06-12T09:48:31.131Z,80.30
2018-06-12T09:50:59.444Z,80.60
2018-06-12T09:53:27.733Z,81.00
2018-06-12T09:55:56.005Z,81.30
2018-06-12T09:58:25.006Z,80.70
2018-06-12T10:00:58.717Z,80.60
2018-06-12T10:03:27.235Z,80.80
2018-06-12T10:05:55.633Z,81.00
2018-06-12T10:08:23.969Z,81.20
2018-06-12T10:10:52.306Z,81.00
2018-06-12T10:13:20.607Z,81.10
2018-06-12T10:15:48.979Z,81.10
2018-06-12T10:18:17.274Z,81.10
2018-06-12T10:20:45.579Z,81.20
2018-06-12T10:23:13.881Z,81.20
2018-06-12T10:25:42.267Z,80.50
2018-06-12T10:28:10.566Z,80.40
2018-06-12T10:30:38.822Z,80.90
2018-06-12T10:33:07.149Z,80.30
2018-06-12T10:35:35.497Z,80.60
2018-06-12T10:38:03.849Z,81.00
2018-06-12T10:40:32.303Z,81.00
2018-06-12T10:43:00.672Z,80.90
2018-06-12T10:45:29.260Z,80.90
2018-06-12T10:47:57.630Z,81.40
2018-06-12T10:50:26.004Z,81.30
2018-06-12T10:52:54.311Z,81.10
2018-06-12T10:55:23.437Z,81.40
2018-06-12T10:57:52.655Z,81.20
2018-06-12T11:00:20.928Z,80.50
2018-06-12T11:02:49.354Z,80.60
2018-06-12T11:05:17.749Z,80.30
2018-06-12T11:10:14.105Z,81.30
2018-06-12T11:12:42.384Z,81.40
2018-06-12T11:15:10.754Z,80.90
2018-06-12T11:17:39.041Z,81.00
2018-06-12T11:20:07.374Z,81.30
2018-06-12T11:22:35.643Z,81.50
2018-06-12T11:25:04.063Z,81.60
2018-06-12T11:27:33.112Z,81.50
2018-06-12T11:30:01.409Z,81.30
2018-06-12T11:32:29.700Z,81.10
2018-06-12T11:34:58.015Z,81.30
2018-06-12T11:37:26.573Z,81.40
2018-06-12T11:39:54.880Z,80.80
2018-06-12T11:42:23.173Z,80.40
2018-06-12T11:44:51.527Z,80.30
2018-06-12T11:47:19.846Z,79.70
2018-06-12T11:52:16.319Z,80.70
2018-06-12T11:54:44.824Z,78.30
2018-06-12T11:57:13.166Z,78.80
2018-06-12T11:59:41.599Z,79.30
2018-06-12T12:02:09.969Z,79.20
2018-06-12T12:04:38.294Z,80.00
2018-06-12T12:07:06.675Z,78.40
2018-06-12T12:09:35.003Z,76.60
2018-06-12T12:12:03.263Z,77.30
2018-06-12T12:14:31.629Z,77.70
2018-06-12T12:17:00.027Z,77.30
2018-06-12T12:19:28.320Z,77.30
2018-06-12T12:21:56.682Z,77.30
2018-06-12T12:24:25.069Z,77.10
2018-06-12T12:26:53.464Z,77.10
2018-06-12T12:29:21.868Z,77.70
2018-06-12T12:31:50.091Z,76.70
2018-06-12T12:34:18.369Z,76.70
2018-06-12T12:36:46.611Z,77.20
2018-06-12T12:39:15.720Z,76.90
2018-06-12T12:41:44.092Z,76.60
2018-06-12T12:44:12.414Z,76.10
2018-06-12T12:46:40.740Z,74.90
2018-06-12T12:49:08.984Z,75.20
2018-06-12T12:51:37.313Z,75.30
2018-06-12T12:54:05.875Z,75.60
2018-06-12T12:59:02.181Z,76.80
2018-06-12T13:01:30.590Z,75.20
2018-06-12T13:03:58.904Z,73.50
2018-06-12T13:06:27.188Z,72.60
2018-06-12T13:08:55.530Z,72.40
2018-06-12T13:11:23.799Z,71.60
2018-06-12T13:13:52.096Z,72.00
2018-06-12T13:16:20.381Z,72.20
2018-06-12T13:18:48.729Z,72.00
2018-06-12T13:21:16.988Z,71.80
2018-06-12T13:23:45.946Z,71.80
2018-06-12T13:26:14.168Z,71.40
2018-06-12T13:28:42.554Z,70.80
2018-06-12T13:31:10.849Z,71.70
2018-06-12T13:33:39.178Z,71.30
2018-06-12T13:36:07.356Z,71.80
2018-06-12T13:38:35.666Z,71.80
2018-06-12T13:41:03.997Z,72.60
2018-06-12T13:43:32.347Z,73.40
2018-06-12T13:46:00.601Z,73.80
2018-06-12T13:48:28.906Z,72.50
2018-06-12T13:50:57.156Z,72.50
2018-06-12T13:53:25.417Z,72.70
2018-06-12T13:55:53.758Z,70.30
2018-06-12T13:58:22.049Z,71.50
2018-06-12T14:00:50.361Z,69.50
2018-06-12T14:05:46.667Z,68.90
2018-06-12T14:08:14.936Z,68.30
2018-06-12T14:10:43.220Z,68.60
2018-06-12T14:13:11.510Z,68.50
2018-06-12T14:15:40.067Z,70.40
2018-06-12T14:18:08.320Z,72.00
2018-06-12T14:20:36.694Z,72.60
2018-06-12T14:23:05.132Z,68.70
2018-06-12T14:25:33.449Z,69.20
2018-06-12T14:28:01.666Z,69.80
2018-06-12T14:30:29.954Z,70.40
2018-06-12T14:32:58.325Z,70.00
2018-06-12T14:35:26.549Z,67.70
2018-06-12T14:37:54.842Z,69.10
2018-06-12T14:40:23.211Z,67.50
2018-06-12T14:42:51.451Z,68.30
2018-06-12T14:45:19.737Z,70.80
2018-06-12T14:47:47.992Z,67.40
2018-06-12T14:50:16.734Z,66.40
2018-06-12T14:52:45.024Z,66.80
2018-06-12T14:55:13.252Z,66.20
2018-06-12T14:57:41.575Z,67.00
2018-06-12T15:00:09.883Z,70.20
2018-06-12T15:02:38.122Z,67.90
2018-06-12T15:05:06.422Z,66.40
2018-06-12T15:07:34.648Z,65.80
2018-06-12T15:10:02.933Z,66.30
2018-06-12T15:12:31.232Z,66.80
2018-06-12T15:14:59.460Z,67.40
2018-06-12T15:17:27.712Z,67.20
2018-06-12T15:19:56.641Z,68.70
2018-06-12T15:22:25.063Z,68.50
2018-06-12T15:27:21.355Z,68.40
2018-06-12T15:29:49.609Z,68.10
2018-06-12T15:32:17.872Z,67.40
2018-06-12T15:34:46.232Z,67.20
2018-06-12T15:37:15.367Z,66.50
2018-06-12T15:39:43.645Z,66.10
2018-06-12T15:42:11.988Z,65.40
2018-06-12T15:44:40.716Z,66.10
2018-06-12T15:47:09.010Z,67.20
2018-06-12T15:49:37.727Z,65.60
2018-06-12T15:52:06.067Z,65.90
2018-06-12T15:54:34.434Z,65.30
2018-06-12T15:57:02.756Z,65.10
2018-06-12T15:59:31.069Z,64.20
2018-06-12T16:01:59.371Z,64.90
2018-06-12T16:04:27.579Z,65.20
2018-06-12T16:06:55.912Z,64.30
2018-06-12T16:09:24.174Z,64.90
2018-06-12T16:11:52.475Z,64.80
2018-06-12T16:14:20.855Z,65.60
2018-06-12T16:16:49.106Z,63.60
2018-06-12T16:19:17.429Z,63.30
2018-06-12T16:21:45.703Z,64.20
2018-06-12T16:24:14.140Z,64.40
2018-06-12T16:29:10.763Z,65.50
2018-06-12T16:31:39.045Z,65.20
2018-06-12T16:34:07.302Z,64.50
2018-06-12T16:36:35.778Z,64.80
2018-06-12T16:39:05.841Z,64.30
2018-06-12T16:41:34.084Z,65.20
2018-06-12T16:44:02.307Z,66.30
2018-06-12T16:46:30.585Z,66.80
2018-06-12T16:48:58.837Z,69.60
2018-06-12T16:51:27.828Z,68.40
2018-06-12T16:53:56.143Z,66.40
2018-06-12T16:56:24.392Z,66.20
2018-06-12T16:58:52.657Z,66.90
2018-06-12T17:01:20.936Z,68.50
2018-06-12T17:03:49.167Z,69.10
2018-06-12T17:06:17.422Z,67.50
2018-06-12T17:08:45.794Z,66.50
2018-06-12T17:11:14.020Z,67.50
2018-06-12T17:13:42.335Z,67.80
2018-06-12T17:16:10.719Z,68.90
2018-06-12T17:18:38.935Z,69.60
2018-06-12T17:21:07.284Z,68.20
2018-06-12T17:23:35.615Z,68.70
2018-06-12T17:26:03.914Z,66.90
2018-06-12T17:28:32.221Z,67.60
2018-06-12T17:31:00.479Z,68.10
2018-06-12T17:33:28.742Z,69.20
2018-06-12T17:35:57.020Z,68.60
2018-06-12T17:38:25.308Z,69.20
2018-06-12T17:40:53.573Z,67.40
2018-06-12T17:43:21.987Z,66.00
2018-06-12T17:45:50.210Z,66.40
2018-06-12T17:48:18.499Z,66.70
2018-06-12T17:50:46.817Z,67.70
2018-06-12T17:53:15.035Z,68.40
2018-06-12T17:55:43.360Z,68.50
2018-06-12T17:58:11.627Z,71.10
2018-06-12T18:00:39.854Z,70.80
2018-06-12T18:03:08.212Z,69.90
2018-06-12T18:05:36.487Z,69.00
2018-06-12T18:08:04.827Z,70.00
2018-06-12T18:10:33.082Z,69.70
2018-06-12T18:13:01.316Z,68.70
2018-06-12T18:15:29.708Z,68.60
2018-06-12T18:17:58.103Z,68.20
2018-06-12T18:20:26.289Z,68.20
2018-06-12T18:22:54.560Z,68.60
2018-06-12T18:25:22.911Z,68.90
2018-06-12T18:27:51.196Z,68.40
2018-06-12T18:30:19.776Z,69.10
2018-06-12T18:32:48.033Z,68.80
2018-06-12T18:35:18.281Z,68.30
2018-06-12T18:37:47.324Z,69.00
2018-06-12T18:40:15.737Z,68.60
2018-06-12T18:42:44.466Z,68.50
2018-06-12T18:45:12.708Z,69.00
2018-06-12T18:47:40.987Z,69.40
2018-06-12T18:50:09.274Z,68.10
2018-06-12T18:52:37.550Z,68.10
2018-06-12T18:55:06.290Z,68.30
2018-06-12T18:57:34.576Z,69.50
2018-06-12T19:00:02.839Z,68.40
2018-06-12T19:02:31.103Z,68.00
2018-06-12T19:04:59.424Z,68.90
2018-06-12T19:07:27.744Z,69.30
2018-06-12T19:09:55.975Z,69.50
2018-06-12T19:12:24.224Z,69.10
2018-06-12T19:14:52.485Z,69.30
2018-06-12T19:17:20.768Z,68.90
2018-06-12T19:19:49.054Z,69.00
2018-06-12T19:24:45.366Z,69.10
2018-06-12T19:27:13.607Z,69.10
2018-06-12T19:29:41.954Z,69.40
2018-06-12T19:32:10.320Z,70.00
2018-06-12T19:34:38.640Z,70.50
2018-06-12T19:37:06.912Z,70.60
2018-06-12T19:39:35.186Z,70.50
2018-06-12T19:42:03.653Z,70.80
2018-06-12T19:44:31.991Z,70.80
2018-06-12T19:47:01.805Z,70.80
2018-06-12T19:49:30.053Z,70.00
2018-06-12T19:51:58.377Z,70.30
2018-06-12T19:54:26.789Z,70.50
2018-06-12T19:56:55.040Z,70.30
2018-06-12T19:59:23.337Z,70.30
2018-06-12T20:01:51.634Z,70.80
2018-06-12T20:04:19.912Z,70.70
2018-06-12T20:06:48.785Z,70.60
2018-06-12T20:09:17.148Z,71.10
2018-06-12T20:11:45.379Z,71.50
2018-06-12T20:14:13.659Z,71.20
2018-06-12T20:19:09.953Z,71.20
2018-06-12T20:21:38.240Z,71.20
2018-06-12T20:24:06.530Z,71.70
2018-06-12T20:26:34.845Z,71.70
2018-06-12T20:29:04.032Z,71.60
2018-06-12T20:31:32.381Z,72.20
2018-06-12T20:34:00.640Z,71.80
2018-06-12T20:36:28.896Z,71.90
2018-06-12T20:38:57.331Z,71.80
2018-06-12T20:41:25.652Z,71.30
2018-06-12T20:43:54.042Z,71.80
2018-06-12T20:46:22.334Z,71.70
2018-06-12T20:48:50.627Z,71.60
2018-06-12T20:51:18.927Z,71.70
2018-06-12T20:53:47.154Z,71.70
2018-06-12T20:56:15.490Z,71.70
2018-06-12T20:58:43.730Z,71.90
2018-06-12T21:01:12.035Z,71.80
2018-06-12T21:03:40.300Z,72.00
2018-06-12T21:06:09.075Z,71.70
2018-06-12T21:08:37.453Z,71.70
2018-06-12T21:11:05.731Z,71.30
2018-06-12T21:13:34.018Z,71.60
2018-06-12T21:16:02.307Z,70.80
2018-06-12T21:18:30.574Z,71.00
2018-06-12T21:20:58.880Z,71.00
2018-06-12T21:23:27.367Z,70.40
2018-06-12T21:28:23.671Z,70.70
2018-06-12T21:30:51.911Z,70.80
2018-06-12T21:33:20.168Z,70.40
2018-06-12T21:35:48.410Z,69.60
2018-06-12T21:38:16.762Z,70.20
2018-06-12T21:40:45.057Z,70.40
2018-06-12T21:43:14.183Z,70.30
2018-06-12T21:45:42.558Z,70.30
2018-06-12T21:48:11.364Z,70.20
2018-06-12T21:50:39.635Z,70.50
2018-06-12T21:53:07.935Z,69.80
2018-06-12T21:55:36.182Z,70.50
2018-06-12T21:58:04.496Z,70.10
2018-06-12T22:00:33.752Z,70.60
2018-06-12T22:03:02.173Z,70.10
2018-06-12T22:05:30.432Z,70.80
2018-06-12T22:07:58.661Z,70.60
2018-06-12T22:10:26.963Z,70.50
2018-06-12T22:12:55.235Z,70.60
2018-06-12T22:15:23.495Z,70.10
2018-06-12T22:17:52.487Z,69.70
2018-06-12T22:20:20.742Z,69.20
2018-06-12T22:22:49.063Z,69.30
2018-06-12T22:25:18.365Z,69.40
2018-06-12T22:27:46.640Z,69.40
2018-06-12T22:30:15.342Z,70.20
2018-06-12T22:32:43.604Z,70.60
2018-06-12T22:35:11.888Z,69.70
2018-06-12T22:37:40.097Z,69.50
2018-06-12T22:42:36.414Z,68.80
2018-06-12T22:45:04.763Z,68.60
2018-06-12T22:47:33.041Z,68.90
2018-06-12T22:50:01.324Z,68.90
2018-06-12T22:52:29.603Z,68.70
2018-06-12T22:54:57.861Z,69.30
2018-06-12T22:59:54.208Z,69.80
2018-06-12T23:02:22.709Z,69.90
2018-06-12T23:04:50.963Z,70.30
2018-06-12T23:07:19.203Z,69.90
2018-06-12T23:09:47.490Z,69.70
2018-06-12T23:12:15.815Z,69.30
2018-06-12T23:14:44.092Z,69.60
2018-06-12T23:17:12.403Z,69.10
2018-06-12T23:19:52.064Z,68.90
2018-06-12T23:22:20.992Z,69.30
2018-06-12T23:24:49.304Z,68.80
2018-06-12T23:27:17.591Z,69.10
2018-06-12T23:29:45.919Z,68.90
2018-06-12T23:32:14.199Z,68.90
2018-06-12T23:34:42.552Z,69.00
2018-06-12T23:37:10.861Z,69.40
2018-06-12T23:39:39.290Z,68.90
2018-06-12T23:42:07.696Z,69.40
2018-06-12T23:44:35.972Z,69.60
2018-06-12T23:47:04.205Z,69.20
2018-06-12T23:49:32.982Z,69.40
2018-06-12T23:52:01.296Z,68.90
2018-06-12T23:54:29.580Z,69.40
2018-06-12T23:56:57.831Z,69.40
2018-06-12T23:59:26.139Z,69.90
